Latest Weather Observations for Norah Head

IDN60901

Issued at 2:41 pm EST Tuesday 3 May 2016 (issued every 10 minutes, with the page automatically refreshed every 10 minutes)

About weather observations | Map of Sydney area stations | Latest observations for Sydney area | Other Formats
Station Details ID: 061366 Name: NORAH HEAD AWS Lat: -33.28 Lon: 151.58 Height: 18.8 m
Data from the previous 72 hours. | See also: Recent months at Norah Head
Date/Time
EST
Tmp

°C
App
Tmp
°C
Dew
Point
°C
Rel
Hum
%
Delta-T

°C
Wind Press
QNH
hPa
Press
MSL
hPa
Rain
since
9 am
mm
Dir
 
Spd
km/h
Gust
km/h
Spd
kts
Gust
kts
03/02:30pm 24.1 21.4 13.6 52 6.1 NW 20 33 11 18 1007.0 1007.0 0.0
03/02:00pm 24.1 21.5 13.9 53 6.0 NW 20 30 11 16 1007.1 1007.1 0.0
03/01:30pm 23.2 21.6 13.9 56 5.4 NW 15 26 8 14 1007.8 1007.8 0.0
03/01:00pm 23.7 21.6 14.7 57 5.4 NW 19 32 10 17 1008.3 1008.3 0.0
03/12:30pm 23.4 20.9 14.1 56 5.5 NNW 20 32 11 17 1009.0 1009.0 0.0
03/12:00pm 23.6 21.6 15.4 60 4.9 NW 20 35 11 19 1009.6 1009.5 0.0
03/11:30am 22.4 21.6 15.0 63 4.4 NW 13 24 7 13 1010.3 1010.2 0.0
03/11:00am 22.0 22.3 14.6 63 4.4 NW 6 17 3 9 1011.0 1010.9 0.0
03/10:30am 23.7 24.2 16.5 64 4.4 N 9 13 5 7 1011.4 1011.3 0.0
03/10:00am 22.6 22.5 15.9 66 4.0 NNE 11 13 6 7 1011.8 1011.7 0.0
03/09:30am 22.2 22.7 16.5 70 3.5 N 9 11 5 6 1012.2 1012.1 0.0
03/09:00am 21.7 22.0 16.9 74 2.9 N 11 15 6 8 1012.7 1012.6 0.0
03/08:30am 20.9 22.1 16.9 78 2.4 NNW 6 9 3 5 1012.8 1012.7 0.0
03/08:00am 20.0 21.2 16.0 78 2.4 NNW 4 7 2 4 1012.8 1012.7 0.0
03/07:30am 18.9 20.8 15.8 82 1.8 CALM 0 2 0 1 1012.8 1012.7 0.0
03/07:00am 17.6 18.4 14.7 83 1.7 NW 4 6 2 3 1012.5 1012.4 0.0
03/06:30am 17.3 18.8 14.6 84 1.6 CALM 0 4 0 2 1012.4 1012.3 0.0
03/06:00am 17.6 19.1 15.6 88 1.2 SSE 2 4 1 2 1012.2 1012.1 0.0
03/05:30am 17.4 18.3 15.2 87 1.3 SW 4 6 2 3 1011.9 1011.8 0.0
03/05:00am 17.2 17.6 14.7 85 1.4 SW 6 7 3 4 1011.6 1011.5 0.0
03/04:30am 17.8 18.0 14.7 82 1.8 W 7 11 4 6 1011.4 1011.3 0.0
03/04:00am 17.3 17.5 14.6 84 1.6 NW 7 13 4 7 1011.0 1010.9 0.0
03/03:30am 16.9 16.9 14.2 84 1.5 WNW 7 13 4 7 1010.8 1010.7 0.0
03/03:00am 17.6 16.5 14.3 81 1.9 W 13 17 7 9 1011.1 1011.0 0.0
03/02:30am 17.6 17.4 14.7 83 1.7 W 9 13 5 7 1011.2 1011.1 0.0
03/02:00am 17.6 17.9 14.5 82 1.8 WNW 6 9 3 5 1011.7 1011.6 0.0
03/01:30am 18.0 18.0 14.3 79 2.1 WNW 7 13 4 7 1012.2 1012.1 0.0
03/01:00am 18.4 18.8 13.7 74 2.7 WNW 4 7 2 4 1012.5 1012.4 0.0
03/12:30am 18.9 19.2 13.3 70 3.2 W 4 6 2 3 1012.9 1012.8 0.0
03/12:00am 18.9 19.6 14.4 75 2.6 SW 4 6 2 3 1013.1 1013.0 0.0
 
Date/Time
EST
Tmp

°C
App
Tmp
°C
Dew
Point
°C
Rel
Hum
%
Delta-T

°C
Wind Press
QNH
hPa
Press
MSL
hPa
Rain
since
9 am
mm
Dir
 
Spd
km/h
Gust
km/h
Spd
kts
Gust
kts
02/11:30pm 19.2 19.2 13.6 70 3.2 WSW 6 9 3 5 1013.1 1013.0 0.0
02/11:00pm 19.4 19.2 13.6 69 3.3 W 7 7 4 4 1013.3 1013.2 0.0
02/10:30pm 19.6 19.7 13.8 69 3.3 W 6 9 3 5 1013.6 1013.5 0.0
02/10:00pm 19.4 19.3 14.0 71 3.1 W 7 9 4 5 1014.0 1013.9 0.0
02/09:30pm 19.0 20.1 15.7 81 2.0 NNW 4 6 2 3 1014.1 1014.0 0.0
02/09:00pm 19.9 21.7 15.5 76 2.6 CALM 0 2 0 1 1014.3 1014.2 0.0
02/08:30pm 20.1 20.0 14.0 68 3.5 W 7 11 4 6 1014.1 1014.0 0.0
02/08:00pm 19.6 19.9 15.9 79 2.2 W 9 13 5 7 1013.9 1013.8 0.0
02/07:30pm 19.7 21.1 16.5 82 1.9 NW 4 6 2 3 1013.8 1013.7 0.0
02/07:00pm 20.3 21.7 17.9 86 1.5 NNW 7 13 4 7 1013.2 1013.1 0.0
02/06:30pm 20.5 21.6 17.9 85 1.6 NNW 9 11 5 6 1013.1 1013.0 0.0
02/06:00pm 20.8 21.6 18.2 85 1.6 N 11 13 6 7 1013.0 1012.9 0.0
02/05:30pm 21.0 21.0 18.2 84 1.7 N 15 17 8 9 1012.8 1012.7 0.0
02/05:00pm 20.7 21.6 18.5 87 1.4 NNE 11 13 6 7 1012.3 1012.2 0.0
02/04:30pm 21.3 22.6 19.2 88 1.3 NNE 11 13 6 7 1012.2 1012.1 0.0
02/04:00pm 21.8 21.5 19.5 87 1.5 NNE 20 24 11 13 1012.4 1012.3 0.0
02/03:30pm 21.7 20.8 19.1 85 1.6 NNE 22 26 12 14 1012.3 1012.2 0.0
02/03:00pm 22.0 21.1 18.2 79 2.4 NNE 20 24 11 13 1012.2 1012.1 0.0
02/02:30pm 22.6 22.9 17.1 71 3.4 NNW 11 15 6 8 1012.2 1012.1 0.0
02/02:00pm 22.5 21.6 18.3 77 2.6 NE 20 22 11 12 1012.3 1012.2 0.0
02/01:30pm 22.5 21.3 17.4 73 3.2 NE 20 24 11 13 1012.6 1012.5 0.0
02/01:00pm 22.6 21.6 16.6 69 3.7 NE 17 20 9 11 1013.1 1013.0 0.0
02/12:30pm 22.5 21.2 15.8 66 4.0 NE 17 20 9 11 1013.8 1013.7 0.0
02/12:00pm 23.3 21.9 15.6 62 4.6 NE 17 19 9 10 1014.1 1014.0 0.0
02/11:30am 24.3 23.5 16.0 60 5.0 ENE 15 20 8 11 1014.8 1014.7 0.0
02/11:00am 23.6 23.4 14.6 57 5.3 ENE 9 13 5 7 1015.6 1015.5 0.0
02/10:30am 22.5 22.8 14.4 60 4.8 NE 6 9 3 5 1016.2 1016.1 0.0
02/10:00am 21.4 21.0 12.5 57 5.0 NE 6 7 3 4 1016.7 1016.6 0.0
02/09:30am 20.6 20.7 12.6 60 4.5 N 4 6 2 3 1017.2 1017.1 0.0
02/09:00am 18.6 18.4 11.9 65 3.7 WSW 4 7 2 4 1017.5 1017.4 0.8
02/08:30am 18.0 17.2 11.1 64 3.7 WSW 6 7 3 4 1017.6 1017.5 0.8
02/08:00am 17.3 16.7 11.8 70 3.0 W 6 7 3 4 1017.6 1017.5 0.8
02/07:30am 16.6 15.4 10.2 66 3.4 WSW 7 9 4 5 1017.4 1017.3 0.8
02/07:00am 16.3 15.0 9.9 66 3.3 W 7 9 4 5 1017.1 1017.0 0.8
02/06:30am 16.0 14.7 9.9 67 3.2 W 7 7 4 4 1017.1 1017.0 0.8
02/06:00am 15.4 13.7 11.2 76 2.2 W 11 13 6 7 1017.0 1016.9 0.8
02/05:30am 15.7 14.1 11.5 76 2.3 W 11 13 6 7 1016.7 1016.6 0.8
02/05:00am 16.7 14.6 9.9 64 3.6 WSW 11 13 6 7 1016.3 1016.2 0.8
02/04:30am 16.9 14.5 8.6 58 4.3 WSW 11 13 6 7 1016.1 1016.0 0.8
02/04:00am 17.2 15.6 8.6 57 4.4 SW 7 11 4 6 1016.1 1016.0 0.8
02/03:30am 17.4 15.2 9.3 59 4.2 WSW 11 13 6 7 1016.0 1015.9 0.8
02/03:00am 17.5 16.1 9.4 59 4.2 WSW 7 9 4 5 1015.9 1015.8 0.8
02/02:30am 17.8 16.1 9.7 59 4.3 W 9 11 5 6 1015.9 1015.8 0.8
02/02:00am 17.5 16.5 11.1 66 3.5 W 7 13 4 7 1015.8 1015.7 0.8
02/01:30am 17.9 16.9 11.0 64 3.7 W 7 11 4 6 1015.6 1015.5 0.8
02/01:00am 18.1 16.4 11.2 64 3.7 WSW 11 15 6 8 1015.6 1015.5 0.8
02/12:30am 18.3 17.4 12.7 70 3.1 SW 9 15 5 8 1015.7 1015.6 0.8
02/12:00am 18.4 19.7 17.1 92 0.8 WNW 6 7 3 4 1015.7 1015.6 0.8
 
Date/Time
EST
Tmp

°C
App
Tmp
°C
Dew
Point
°C
Rel
Hum
%
Delta-T

°C
Wind Press
QNH
hPa
Press
MSL
hPa
Rain
since
9 am
mm
Dir
 
Spd
km/h
Gust
km/h
Spd
kts
Gust
kts
01/11:30pm 18.7 21.2 17.2 91 0.9 CALM 0 6 0 3 1015.6 1015.5 0.8
01/11:00pm 18.7 20.0 17.0 90 1.0 W 6 7 3 4 1015.2 1015.1 0.8
01/10:30pm 19.0 20.3 17.1 89 1.2 WNW 6 11 3 6 1015.0 1014.9 0.8
01/10:00pm 19.1 20.2 17.2 89 1.2 NW 7 11 4 6 1014.7 1014.6 0.8
01/09:30pm 19.3 20.7 17.3 88 1.2 WNW 6 9 3 5 1014.5 1014.4 0.8
01/09:00pm 19.5 20.7 17.3 87 1.3 NW 7 11 4 6 1014.0 1013.9 0.8
01/08:30pm 19.9 21.2 17.5 86 1.5 NW 7 13 4 7 1013.6 1013.5 0.8
01/08:00pm 20.3 20.1 17.5 84 1.7 NNW 15 22 8 12 1013.2 1013.1 0.8
01/07:30pm 20.9 19.5 17.9 83 1.9 NNW 22 28 12 15 1012.6 1012.5 0.8
01/07:00pm 21.1 20.0 17.7 81 2.1 NNW 20 26 11 14 1012.4 1012.3 0.8
01/06:30pm 21.4 20.0 18.0 81 2.1 NNW 22 32 12 17 1012.2 1012.1 0.8
01/06:00pm 21.5 20.3 18.3 82 2.0 NNW 22 33 12 18 1012.1 1012.0 0.8
01/05:30pm 21.5 20.3 18.5 83 1.9 NNW 22 33 12 18 1012.1 1012.0 0.8
01/05:00pm 21.6 20.0 18.4 82 2.0 NNW 24 32 13 17 1011.6 1011.5 0.8
01/04:30pm 21.6 19.0 18.6 83 1.9 NNW 30 37 16 20 1011.6 1011.5 0.8
01/04:00pm 21.7 18.3 18.9 84 1.8 N 35 41 19 22 1011.4 1011.3 0.8
01/03:30pm 21.6 17.4 19.0 85 1.6 N 39 43 21 23 1011.4 1011.3 0.8
01/03:00pm 21.8 18.3 18.8 83 1.9 N 35 41 19 22 1010.9 1010.8 0.8
01/02:30pm 22.0 20.3 19.0 83 1.9 N 26 30 14 16 1010.9 1010.8 0.8
01/02:00pm 22.9 22.1 19.3 80 2.3 NNW 22 30 12 16 1011.5 1011.4 0.8
01/01:30pm 23.1 23.3 20.1 83 1.9 NW 19 30 10 16 1011.5 1011.4 0.8
01/01:00pm 21.2 20.6 19.8 92 0.9 NNW 22 28 12 15 1012.0 1011.9 0.8
01/12:30pm 20.6 19.2 19.6 94 0.6 NNW 26 33 14 18 1012.2 1012.1 0.8
01/12:00pm 20.5 18.5 20.0 97 0.3 NNW 30 35 16 19 1012.7 1012.6 0.8
01/11:30am 20.1 17.2 20.1 100 0.0 N 35 43 19 23 1013.2 1013.1 0.8
01/11:00am 19.9 16.5 19.9 100 0.0 N 37 43 20 23 1013.8 1013.7 0.8
01/10:30am 19.8 16.8 19.8 100 0.0 N 35 41 19 22 1014.5 1014.4 0.8
01/10:00am 19.7 16.2 19.7 100 0.0 N 37 43 20 23 1014.5 1014.4 0.8
01/09:30am 19.4 17.9 19.4 100 0.0 N 26 32 14 17 1015.4 1015.3 0.6
01/09:00am 19.7 19.5 19.7 100 0.0 N 20 24 11 13 1015.5 1015.4 7.2
01/08:30am 19.3 21.5 19.3 100 0.0 NW 6 11 3 6 1016.1 1016.0 6.6
01/08:00am 19.2 20.8 19.2 100 0.0 NW 9 15 5 8 1016.4 1016.3 5.8
01/07:30am 19.2 21.2 19.2 100 0.0 NW 7 13 4 7 1015.8 1015.7 5.6
01/07:00am 19.2 21.3 19.0 99 0.1 WNW 6 9 3 5 1015.3 1015.2 0.8
01/06:30am 19.9 20.7 19.9 100 0.0 N 15 20 8 11 1013.5 1013.4 0.6
01/06:00am 19.9 20.3 19.9 100 0.0 N 17 20 9 11 1013.1 1013.0 0.6
01/05:30am 19.9 20.0 19.9 100 0.0 N 19 22 10 12 1013.1 1013.0 0.6
01/05:00am 20.1 20.1 20.1 100 0.0 N 20 22 11 12 1013.0 1012.9 0.6
01/04:30am 19.6 20.7 19.6 100 0.0 NNE 13 15 7 8 1012.9 1012.8 0.6
01/04:00am 19.2 21.3 19.0 99 0.1 N 6 7 3 4 1013.1 1013.0 0.6
01/03:30am 19.2 21.1 19.0 99 0.1 N 7 9 4 5 1013.4 1013.3 0.6
01/03:00am 18.8 21.1 18.5 98 0.2 NW 4 6 2 3 1013.7 1013.6 0.6
01/02:30am 18.9 20.6 18.6 98 0.2 N 7 9 4 5 1013.7 1013.6 0.6
01/02:00am 18.7 19.9 18.2 97 0.3 N 9 9 5 5 1013.8 1013.7 0.6
01/01:30am 18.8 21.0 18.3 97 0.3 NW 4 6 2 3 1014.5 1014.4 0.6
01/01:00am 18.8 20.9 18.1 96 0.4 NW 4 7 2 4 1014.9 1014.8 0.6
01/12:30am 18.6 20.3 18.1 97 0.3 NW 6 9 3 5 1015.0 1014.9 0.6
01/12:00am 19.1 20.8 18.4 96 0.4 NNW 7 9 4 5 1015.4 1015.3 0.6
 
Date/Time
EST
Tmp

°C
App
Tmp
°C
Dew
Point
°C
Rel
Hum
%
Delta-T

°C
Wind Press
QNH
hPa
Press
MSL
hPa
Rain
since
9 am
mm
Dir
 
Spd
km/h
Gust
km/h
Spd
kts
Gust
kts
30/11:30pm 19.4 20.8 18.7 96 0.4 NNW 9 11 5 6 1015.7 1015.6 0.6
30/11:00pm 19.3 20.6 18.5 95 0.5 NNW 9 11 5 6 1016.2 1016.1 0.6
30/10:30pm 19.4 20.7 18.4 94 0.6 NNW 9 11 5 6 1016.5 1016.4 0.6
30/10:00pm 19.7 21.4 18.5 93 0.7 N 7 11 4 6 1016.8 1016.7 0.6
30/09:30pm 20.1 21.6 18.8 92 0.8 NNW 9 13 5 7 1017.0 1016.9 0.6
30/09:00pm 20.4 21.5 18.9 91 0.9 N 11 15 6 8 1016.9 1016.8 0.6
30/08:30pm 20.6 21.6 18.7 89 1.2 NW 11 17 6 9 1016.9 1016.8 0.6
30/08:00pm 20.4 21.4 18.7 90 1.1 NW 11 19 6 10 1016.8 1016.7 0.6
30/07:30pm 20.8 22.1 19.3 91 0.9 NNW 11 15 6 8 1016.8 1016.7 0.6
30/07:00pm 21.2 21.5 19.5 90 1.1 N 17 20 9 11 1016.8 1016.7 0.6
30/06:30pm 21.6 22.1 19.2 86 1.5 NNW 15 17 8 9 1016.7 1016.6 0.6
30/06:00pm 22.0 22.1 19.2 84 1.8 NNW 17 20 9 11 1016.7 1016.6 0.6
30/05:30pm 21.6 23.1 19.7 89 1.2 NNW 11 13 6 7 1016.5 1016.4 0.6
30/05:00pm 22.0 22.8 19.9 88 1.3 N 15 20 8 11 1016.4 1016.3 0.6
30/04:30pm 21.8 23.9 19.4 86 1.5 WNW 7 13 4 7 1016.5 1016.4 0.6
30/04:00pm 21.7 24.3 19.3 86 1.5 NW 4 11 2 6 1016.5 1016.4 0.6
30/03:30pm 21.8 24.6 19.7 88 1.3 NW 4 9 2 5 1016.4 1016.3 0.6
30/03:00pm 21.6 23.9 19.9 90 1.1 NW 7 13 4 7 1016.1 1016.0 0.6

Latest Capital City Observations: Canberra | Sydney | Melbourne | Brisbane | Adelaide | Perth | Hobart | Darwin

Other Formats:

Comma delimited format used in spreadsheet applications
http://www.bom.gov.au/fwo/IDN60901/IDN60901.95770.axf

JavaScript Object Notation format (JSON) in row-major order
http://www.bom.gov.au/fwo/IDN60901/IDN60901.95770.json